Terminal Aerodrome Forecast
Issued by NWS Raleigh/Durham, NC

Home | Current Version | Previous Version | Text Only | Print | Product List | Glossary On
Versions: 1 2 3 4 5 6 7 8 9 10 11 12 13 14 15 16 17 18 19 20 21 22 23 24 25 26 27 28 29
000
FTUS42 KRAH 301740 CCA
TAFFAY
TAF COR
KFAY 301740Z 3018/3118 VRB06KT P6SM VCSH SCT050 SCT250
      TEMPO 3018/3020 3SM TSRA BKN030CB
     FM310100 VRB05KT P6SM VCSH BKN050 OVC100
     FM310700 34005KT P6SM SCT050 BKN150=

USA.gov is the U.S. government's official web portal to all federal, state and local government web resources and services.